F/V Kan An Ael — FHIZ — position and weather

sailwx.info

Track history (hours):
 
Tides and Currents Weather Stations Pressure Air Temp Water Temp Dewpoint Dewpoint Depression Visibility Wind Speed Wind Dir Waves Ship Positions

F/V Kan An Ael

Last reported at 2018-Feb-22 09:00 UTC. Time now 2018-Feb-22 09:19 UTC.
Position N 48°12' W 005°00'.

Length 16 m.

Type: Fishing. MMSI: 228109000.

Date/timePositionNaut miles runAvg speedWind from/ knotsBaromVisibWave heightAir tempDewpointWater temp
2018-Feb-22 09:00N 48°12' W 005°00'1 3.0
2018-Feb-22 08:30N 48°12' W 005°02'1 2.8
2018-Feb-22 08:00N 48°13' W 005°04'1 2.7
2018-Feb-22 07:30N 48°14' W 005°06'1 2.5
2018-Feb-22 07:00N 48°15' W 005°05'1 2.4
2018-Feb-22 06:30N 48°16' W 005°05'1 1.5
2018-Feb-22 06:00N 48°17' W 005°05'2 3.2
2018-Feb-22 05:30N 48°16' W 005°02'2 3.0
2018-Feb-22 05:00N 48°15' W 005°03'1 2.6
2018-Feb-22 04:30N 48°15' W 005°05'1 2.1
2018-Feb-22 04:00N 48°16' W 005°05'1 2.5
2018-Feb-22 03:30N 48°17' W 005°05'1 2.7
2018-Feb-22 03:00N 48°17' W 005°03'1 2.8
2018-Feb-22 02:30N 48°15' W 005°02'1 2.8
2018-Feb-22 02:00N 48°14' W 005°04'1 2.4
2018-Feb-22 01:31N 48°15' W 005°05'2 3.5
2018-Feb-22 01:00N 48°17' W 005°05'1 2.1
2018-Feb-22 00:30N 48°17' W 005°03'1 2.2
2018-Feb-22 00:00N 48°16' W 005°02'1 2.1
2018-Feb-21 23:30N 48°15' W 005°03'1 2.3
2018-Feb-21 23:00N 48°14' W 005°04'1 2.5
2018-Feb-21 22:31N 48°15' W 005°05'2 3.4
2018-Feb-21 22:01N 48°17' W 005°05'1 2.9
2018-Feb-21 21:30N 48°18' W 005°06'2 3.0
2018-Feb-21 20:59N 48°18' W 005°08'1 1.1
2018-Feb-21 20:30N 48°18' W 005°08'1 2.9
2018-Feb-21 20:00N 48°18' W 005°05'2 3.1
2018-Feb-21 19:30N 48°17' W 005°04'2 3.2
2018-Feb-21 19:00N 48°16' W 005°04'1 2.4
2018-Feb-21 18:30N 48°15' W 005°05'1 2.3
2018-Feb-21 18:00N 48°16' W 005°05'1 2.3
2018-Feb-21 17:30N 48°17' W 005°05'1 2.2
2018-Feb-21 17:01N 48°18' W 005°05'1 2.5
2018-Feb-21 16:30N 48°18' W 005°07'2 3.0
2018-Feb-21 15:58N 48°18' W 005°09'1 1.5
2018-Feb-21 15:28N 48°18' W 005°08'1 3.0
2018-Feb-21 14:59N 48°18' W 005°06'1 2.8
2018-Feb-21 14:30N 48°17' W 005°05'1 2.9
2018-Feb-21 14:00N 48°16' W 005°05'1 2.8
2018-Feb-21 13:30N 48°14' W 005°06'1 2.6
2018-Feb-21 13:00N 48°13' W 005°05'1 2.7
2018-Feb-21 12:30N 48°12' W 005°03'2 3.1
2018-Feb-21 12:00N 48°12' W 005°01'2 3.1
2018-Feb-21 11:30N 48°12' W 004°59'3 6.3
2018-Feb-21 11:00N 48°10' W 004°55'4 8.1
2018-Feb-21 10:31N 48°06' W 004°52'4 7.4
2018-Feb-21 10:00N 48°03' W 004°48'2 5.0
2018-Feb-21 09:30N 48°01' W 004°46'2 4.4
2018-Feb-21 09:00N 47°60' W 004°43'3 6.6
2018-Feb-21 08:30N 47°58' W 004°40'4 7.5
2018-Feb-21 08:00N 47°55' W 004°36'4 7.8
2018-Feb-21 07:30N 47°53' W 004°31'4 7.8
2018-Feb-21 07:00N 47°50' W 004°27'3 5.6
2018-Feb-21 06:29N 47°49' W 004°23'0 0.0
2018-Feb-21 06:00N 47°49' W 004°23'0 0.0
2018-Feb-20 10:28N 47°49' W 004°23'0 0.0
2018-Feb-20 09:58N 47°49' W 004°23'0 0.2
2018-Feb-20 09:29N 47°49' W 004°23'0 0.1
2018-Feb-20 08:55N 47°49' W 004°23'0 0.0
2018-Feb-20 08:30N 47°49' W 004°23'0 0.0
2018-Feb-20 07:52N 47°49' W 004°23'0 0.0
2018-Feb-20 07:30N 47°49' W 004°23'0 0.0
2018-Feb-20 07:00N 47°49' W 004°23'0 0.0
2018-Feb-20 06:30N 47°49' W 004°23'0 0.0
2018-Feb-20 06:00N 47°49' W 004°23'0 0.0
2018-Feb-19 19:04N 47°49' W 004°23'0 0.0
2018-Feb-19 18:59N 47°49' W 004°23'2 3.6
2018-Feb-19 18:29N 47°49' W 004°25'4 9.0
2018-Feb-19 18:00N 47°52' W 004°30'4 8.9
2018-Feb-19 17:30N 47°55' W 004°35'4 8.7
2018-Feb-19 17:00N 47°58' W 004°40'4 8.2
2018-Feb-19 16:30N 48°01' W 004°45'3 6.8
2018-Feb-19 16:00N 48°03' W 004°48'4 8.0
2018-Feb-19 15:30N 48°06' W 004°52'4 7.7
2018-Feb-19 15:00N 48°10' W 004°55'3 5.4
2018-Feb-19 14:30N 48°12' W 004°58'0 0.6
2018-Feb-19 14:00N 48°11' W 004°57'0 0.1
2018-Feb-19 13:30N 48°11' W 004°57'1 2.0
2018-Feb-19 13:00N 48°11' W 004°57'4 8.6
2018-Feb-19 12:30N 48°07' W 004°52'4 8.8
2018-Feb-19 12:01N 48°04' W 004°49'5 9.9
2018-Feb-19 11:30N 48°00' W 004°43'5 9.2
2018-Feb-19 11:00N 47°57' W 004°38'4 8.6
2018-Feb-19 10:30N 47°54' W 004°33'4 8.4
2018-Feb-19 09:59N 47°51' W 004°28'4 8.2
2018-Feb-19 09:30N 47°49' W 004°24'1 1.6
2018-Feb-19 08:56N 47°49' W 004°23'0 0.0
2018-Feb-19 07:31N 47°49' W 004°23'0 0.0
2018-Feb-19 07:15N 47°49' W 004°23'0 0.0
2018-Feb-19 07:00N 47°49' W 004°23'0 0.0
2018-Feb-19 06:28N 47°49' W 004°23'0 0.0
2018-Feb-19 06:00N 47°49' W 004°23'0 0.0
2018-Feb-19 05:30N 47°49' W 004°23'0 0.0
2018-Feb-19 04:59N 47°49' W 004°23'2 4.0
2018-Feb-19 04:30N 47°50' W 004°26'4 8.5
2018-Feb-19 04:00N 47°52' W 004°30'4 8.2
2018-Feb-19 03:30N 47°55' W 004°35'4 8.0
2018-Feb-19 03:00N 47°58' W 004°39'4 7.3
2018-Feb-19 02:30N 48°00' W 004°43'3 5.8
2018-Feb-19 02:00N 48°02' W 004°47'3 5.3
2018-Feb-19 01:30N 48°04' W 004°50'4 7.4
2018-Feb-19 01:00N 48°07' W 004°53'4 7.7
2018-Feb-19 00:30N 48°10' W 004°56'2 3.4
2018-Feb-19 00:00N 48°11' W 004°57'0 0.0
2018-Feb-18 23:30N 48°11' W 004°57'0 0.0
2018-Feb-18 23:00N 48°11' W 004°57'0 0.0
2018-Feb-18 22:30N 48°11' W 004°57'0 0.1
2018-Feb-18 22:00N 48°11' W 004°58'2 3.3
2018-Feb-18 21:30N 48°13' W 004°59'1 2.6
2018-Feb-18 21:00N 48°13' W 005°01'1 2.6
2018-Feb-18 20:30N 48°12' W 005°03'2 3.2
2018-Feb-18 20:00N 48°13' W 005°05'1 2.1
2018-Feb-18 19:30N 48°14' W 005°05'1 2.3
2018-Feb-18 19:00N 48°15' W 005°04'2 3.0
2018-Feb-18 18:29N 48°16' W 005°05'1 2.2
2018-Feb-18 18:00N 48°17' W 005°06'1 2.1
2018-Feb-18 17:30N 48°17' W 005°07'1 1.8
2018-Feb-18 16:59N 48°16' W 005°06'1 2.1
2018-Feb-18 16:29N 48°17' W 005°05'1 1.9
2018-Feb-18 15:58N 48°18' W 005°05'1 2.2
2018-Feb-18 15:30N 48°18' W 005°07'1 2.6
2018-Feb-18 14:59N 48°18' W 005°09'0 1.0
2018-Feb-18 14:30N 48°19' W 005°09'1 2.8
2018-Feb-18 14:00N 48°18' W 005°07'1 2.9
2018-Feb-18 13:30N 48°18' W 005°05'2 3.2
2018-Feb-18 13:00N 48°17' W 005°04'1 2.7
2018-Feb-18 12:30N 48°16' W 005°03'1 2.5
2018-Feb-18 12:00N 48°15' W 005°05'2 3.2
2018-Feb-18 11:29N 48°16' W 005°05'2 3.1
2018-Feb-18 10:59N 48°18' W 005°05'2 3.2
2018-Feb-18 10:30N 48°18' W 005°07'1 2.8
2018-Feb-18 09:58N 48°18' W 005°09'1 1.9
2018-Feb-18 09:28N 48°19' W 005°08'1 2.2
2018-Feb-18 09:00N 48°18' W 005°06'1 2.1
2018-Feb-18 08:30N 48°18' W 005°05'1 2.1
2018-Feb-18 08:00N 48°17' W 005°04'1 2.0
2018-Feb-18 07:30N 48°17' W 005°03'1 2.3
2018-Feb-18 07:00N 48°16' W 005°02'1 2.8
2018-Feb-18 06:30N 48°15' W 005°04'1 2.5
2018-Feb-18 06:00N 48°15' W 005°05'1 2.5
2018-Feb-18 05:30N 48°16' W 005°05'1 2.0
2018-Feb-18 05:00N 48°17' W 005°05'1 2.8
2018-Feb-18 04:30N 48°17' W 005°03'1 2.7
2018-Feb-18 04:00N 48°15' W 005°02'2 3.4
2018-Feb-18 03:30N 48°14' W 005°05'1 1.8
2018-Feb-18 02:57N 48°15' W 005°05'1 1.4
2018-Feb-18 02:30N 48°16' W 005°05'1 1.9
2018-Feb-18 02:00N 48°17' W 005°05'1 2.1
2018-Feb-18 01:30N 48°17' W 005°03'1 3.0
2018-Feb-18 01:00N 48°15' W 005°02'2 3.1
2018-Feb-18 00:30N 48°15' W 005°04'1 2.0
2018-Feb-17 23:59N 48°15' W 005°05'1 2.9
2018-Feb-17 23:30N 48°17' W 005°05'1 2.6
2018-Feb-17 23:00N 48°17' W 005°03'1 2.2
2018-Feb-17 22:30N 48°16' W 005°03'1 2.4
2018-Feb-17 22:00N 48°15' W 005°04'1 2.0
2018-Feb-17 21:31N 48°15' W 005°05'2 3.6
2018-Feb-17 21:00N 48°16' W 005°05'2 3.4
2018-Feb-17 20:28N 48°18' W 005°06'1 2.1
2018-Feb-17 20:00N 48°18' W 005°04'1 2.3
2018-Feb-17 19:30N 48°17' W 005°03'1 2.5
2018-Feb-17 19:00N 48°16' W 005°03'1 2.6
2018-Feb-17 18:30N 48°16' W 005°05'1 2.8
2018-Feb-17 18:00N 48°17' W 005°05'1 2.5
2018-Feb-17 17:29N 48°18' W 005°06'1 3.1
2018-Feb-17 17:00N 48°18' W 005°08'1 2.0
2018-Feb-17 16:29N 48°18' W 005°09'1 2.9
2018-Feb-17 16:01N 48°17' W 005°07'1 2.0
2018-Feb-17 15:30N 48°18' W 005°06'1 2.4
2018-Feb-17 14:59N 48°18' W 005°07'1 2.9
2018-Feb-17 14:29N 48°18' W 005°09'2 3.1
2018-Feb-17 13:59N 48°17' W 005°08'2 3.1
2018-Feb-17 13:30N 48°16' W 005°06'1 2.5
2018-Feb-17 13:00N 48°18' W 005°05'1 2.3
2018-Feb-17 12:30N 48°17' W 005°03'2 3.2
2018-Feb-17 12:00N 48°16' W 005°03'1 2.8
2018-Feb-17 11:30N 48°15' W 005°04'1 2.7
2018-Feb-17 11:00N 48°16' W 005°05'2 3.3
2018-Feb-17 10:29N 48°17' W 005°05'1 2.6
2018-Feb-17 10:00N 48°18' W 005°05'1 2.0
2018-Feb-17 09:30N 48°18' W 005°04'1 1.9
2018-Feb-17 09:00N 48°17' W 005°03'1 1.8
2018-Feb-17 08:30N 48°16' W 005°03'1 2.0
2018-Feb-17 08:00N 48°15' W 005°03'1 1.6
2018-Feb-17 07:31N 48°15' W 005°03'1 2.7
2018-Feb-17 07:00N 48°14' W 005°05'2 3.4
2018-Feb-17 06:30N 48°16' W 005°05'1 2.4
2018-Feb-17 06:00N 48°17' W 005°04'1 2.7
2018-Feb-17 05:31N 48°16' W 005°02'1 2.6
2018-Feb-17 05:00N 48°15' W 005°03'2 3.1
2018-Feb-17 04:30N 48°15' W 005°05'1 2.2
2018-Feb-17 04:00N 48°16' W 005°05'1 2.1
2018-Feb-17 03:30N 48°17' W 005°05'1 2.1
2018-Feb-17 03:00N 48°18' W 005°04'1 2.7
2018-Feb-17 02:30N 48°17' W 005°03'2 4.3
2018-Feb-17 02:00N 48°15' W 005°04'1 1.9
2018-Feb-17 01:30N 48°15' W 005°05'1 2.2
2018-Feb-17 01:00N 48°16' W 005°05'1 2.1
2018-Feb-17 00:31N 48°17' W 005°05'1 3.0
2018-Feb-17 00:00N 48°16' W 005°03'1 2.7
2018-Feb-16 23:30N 48°15' W 005°03'1 2.9
2018-Feb-16 23:00N 48°14' W 005°04'1 2.5
2018-Feb-16 22:27N 48°16' W 005°05'2 3.4
2018-Feb-16 21:58N 48°17' W 005°05'1 2.5
2018-Feb-16 21:31N 48°17' W 005°03'1 2.2
2018-Feb-16 21:00N 48°16' W 005°03'0 1.0
2018-Feb-16 20:30N 48°16' W 005°03'1 2.2
2018-Feb-16 20:00N 48°15' W 005°03'1 2.5
2018-Feb-16 19:30N 48°15' W 005°05'2 3.5
2018-Feb-16 19:00N 48°17' W 005°05'1 2.9
2018-Feb-16 18:31N 48°18' W 005°06'1 2.0
2018-Feb-16 18:00N 48°18' W 005°04'1 2.8
2018-Feb-16 17:30N 48°17' W 005°03'2 3.1
2018-Feb-16 17:01N 48°15' W 005°02'2 3.1
2018-Feb-16 16:30N 48°15' W 005°04'0 1.0
2018-Feb-16 16:01N 48°15' W 005°05'1 2.8
2018-Feb-16 15:30N 48°13' W 005°05'2 3.7
2018-Feb-16 15:00N 48°12' W 005°03'2 3.5
2018-Feb-16 14:30N 48°10' W 005°02'2 4.2
2018-Feb-16 14:00N 48°09' W 005°05'2 4.4
2018-Feb-16 13:30N 48°07' W 005°07'1 2.1
2018-Feb-16 13:01N 48°08' W 005°09'1 2.5
2018-Feb-16 12:30N 48°08' W 005°07'1 3.0
2018-Feb-16 12:00N 48°08' W 005°05'1 2.7
2018-Feb-16 11:30N 48°09' W 005°03'3 6.7
2018-Feb-16 11:00N 48°07' W 004°58'4 8.5
2018-Feb-16 10:30N 48°05' W 004°53'4 8.7
2018-Feb-16 10:00N 48°02' W 004°48'4 8.7
2018-Feb-16 09:30N 47°59' W 004°43'4 8.5
2018-Feb-16 09:00N 47°56' W 004°38'4 8.3
2018-Feb-16 08:30N 47°54' W 004°34'4 8.2
2018-Feb-16 08:00N 47°51' W 004°29'4 8.1
2018-Feb-16 07:30N 47°49' W 004°24'1 1.6
2018-Feb-16 06:56N 47°49' W 004°23'0 0.0
2018-Feb-16 06:26N 47°49' W 004°23'0 0.0
2018-Feb-16 05:59N 47°49' W 004°23'0 0.0
2018-Feb-15 10:06N 47°49' W 004°23'0 0.1
2018-Feb-15 09:46N 47°49' W 004°23'0 0.0
2018-Feb-15 08:44N 47°49' W 004°23'0 0.0
2018-Feb-15 08:17N 47°49' W 004°23'0 0.0
2018-Feb-15 08:00N 47°49' W 004°23'0 0.0
2018-Feb-15 07:26N 47°49' W 004°23'0 0.0
2018-Feb-15 06:47N 47°49' W 004°23'0 0.0
2018-Feb-15 06:29N 47°49' W 004°23'0 0.0
2018-Feb-15 05:59N 47°49' W 004°23'0 0.0
2018-Feb-14 10:18N 47°49' W 004°23'0 0.0
2018-Feb-14 09:59N 47°49' W 004°23'0 0.0
2018-Feb-14 09:29N 47°49' W 004°23'0 0.0
2018-Feb-14 08:10N 47°49' W 004°23'0 0.0
2018-Feb-14 07:45N 47°49' W 004°23'0 0.0
2018-Feb-12 16:20N 47°49' W 004°23'0 0.0
2018-Feb-12 15:52N 47°49' W 004°23'2 3.4
2018-Feb-12 15:12N 47°47' W 004°23'2 8.1
2018-Feb-12 14:57N 47°46' W 004°20'2 2.0
2018-Feb-12 14:03N 47°47' W 004°18'1 6.0
2018-Feb-12 13:55N 47°46' W 004°19'3 6.4
2018-Feb-12 13:28N 47°46' W 004°23'4 7.3
2018-Feb-12 12:58N 47°49' W 004°27'4 7.9
2018-Feb-12 12:29N 47°51' W 004°32'4 7.8
2018-Feb-12 11:59N 47°54' W 004°36'4 7.6
2018-Feb-12 11:30N 47°56' W 004°40'4 7.1
2018-Feb-12 11:00N 47°59' W 004°43'3 6.2
2018-Feb-12 10:30N 48°02' W 004°46'2 3.8
2018-Feb-12 10:00N 48°03' W 004°46'3 5.3
2018-Feb-12 09:30N 48°05' W 004°43'  
Track history (hours):
 
Tides and Currents Weather Stations Pressure Air Temp Water Temp Dewpoint Dewpoint Depression Visibility Wind Speed Wind Dir Waves Ship Positions

F/V Kan An Ael

Last reported at 2018-Feb-22 09:00 UTC. Time now 2018-Feb-22 09:20 UTC.
Position N 48°12' W 005°00'.

Length 16 m.

Type: Fishing. MMSI: 228109000.

Date/timePositionNaut miles runAvg speedWind from/ knotsBaromVisibWave heightAir tempDewpointWater temp
2018-Feb-22 09:00N 48°12' W 005°00'1 3.0
2018-Feb-22 08:30N 48°12' W 005°02'1 2.8
2018-Feb-22 08:00N 48°13' W 005°04'1 2.7
2018-Feb-22 07:30N 48°14' W 005°06'1 2.5
2018-Feb-22 07:00N 48°15' W 005°05'1 2.4
2018-Feb-22 06:30N 48°16' W 005°05'1 1.5
2018-Feb-22 06:00N 48°17' W 005°05'2 3.2
2018-Feb-22 05:30N 48°16' W 005°02'2 3.0
2018-Feb-22 05:00N 48°15' W 005°03'1 2.6
2018-Feb-22 04:30N 48°15' W 005°05'1 2.1
2018-Feb-22 04:00N 48°16' W 005°05'1 2.5
2018-Feb-22 03:30N 48°17' W 005°05'1 2.7
2018-Feb-22 03:00N 48°17' W 005°03'1 2.8
2018-Feb-22 02:30N 48°15' W 005°02'1 2.8
2018-Feb-22 02:00N 48°14' W 005°04'1 2.4
2018-Feb-22 01:31N 48°15' W 005°05'2 3.5
2018-Feb-22 01:00N 48°17' W 005°05'1 2.1
2018-Feb-22 00:30N 48°17' W 005°03'1 2.2
2018-Feb-22 00:00N 48°16' W 005°02'1 2.1
2018-Feb-21 23:30N 48°15' W 005°03'1 2.3
2018-Feb-21 23:00N 48°14' W 005°04'1 2.5
2018-Feb-21 22:31N 48°15' W 005°05'2 3.4
2018-Feb-21 22:01N 48°17' W 005°05'1 2.9
2018-Feb-21 21:30N 48°18' W 005°06'2 3.0
2018-Feb-21 20:59N 48°18' W 005°08'1 1.1
2018-Feb-21 20:30N 48°18' W 005°08'1 2.9
2018-Feb-21 20:00N 48°18' W 005°05'2 3.1
2018-Feb-21 19:30N 48°17' W 005°04'2 3.2
2018-Feb-21 19:00N 48°16' W 005°04'1 2.4
2018-Feb-21 18:30N 48°15' W 005°05'1 2.3
2018-Feb-21 18:00N 48°16' W 005°05'1 2.3
2018-Feb-21 17:30N 48°17' W 005°05'1 2.2
2018-Feb-21 17:01N 48°18' W 005°05'1 2.5
2018-Feb-21 16:30N 48°18' W 005°07'2 3.0
2018-Feb-21 15:58N 48°18' W 005°09'1 1.5
2018-Feb-21 15:28N 48°18' W 005°08'1 3.0
2018-Feb-21 14:59N 48°18' W 005°06'1 2.8
2018-Feb-21 14:30N 48°17' W 005°05'1 2.9
2018-Feb-21 14:00N 48°16' W 005°05'1 2.8
2018-Feb-21 13:30N 48°14' W 005°06'1 2.6
2018-Feb-21 13:00N 48°13' W 005°05'1 2.7
2018-Feb-21 12:30N 48°12' W 005°03'2 3.1
2018-Feb-21 12:00N 48°12' W 005°01'2 3.1
2018-Feb-21 11:30N 48°12' W 004°59'3 6.3
2018-Feb-21 11:00N 48°10' W 004°55'4 8.1
2018-Feb-21 10:31N 48°06' W 004°52'4 7.4
2018-Feb-21 10:00N 48°03' W 004°48'2 5.0
2018-Feb-21 09:30N 48°01' W 004°46'2 4.4
2018-Feb-21 09:00N 47°60' W 004°43'3 6.6
2018-Feb-21 08:30N 47°58' W 004°40'4 7.5
2018-Feb-21 08:00N 47°55' W 004°36'4 7.8
2018-Feb-21 07:30N 47°53' W 004°31'4 7.8
2018-Feb-21 07:00N 47°50' W 004°27'3 5.6
2018-Feb-21 06:29N 47°49' W 004°23'0 0.0
2018-Feb-21 06:00N 47°49' W 004°23'0 0.0
2018-Feb-20 10:28N 47°49' W 004°23'0 0.0
2018-Feb-20 09:58N 47°49' W 004°23'0 0.2
2018-Feb-20 09:29N 47°49' W 004°23'0 0.1
2018-Feb-20 08:55N 47°49' W 004°23'0 0.0
2018-Feb-20 08:30N 47°49' W 004°23'0 0.0
2018-Feb-20 07:52N 47°49' W 004°23'0 0.0
2018-Feb-20 07:30N 47°49' W 004°23'0 0.0
2018-Feb-20 07:00N 47°49' W 004°23'0 0.0
2018-Feb-20 06:30N 47°49' W 004°23'0 0.0
2018-Feb-20 06:00N 47°49' W 004°23'0 0.0
2018-Feb-19 19:04N 47°49' W 004°23'0 0.0
2018-Feb-19 18:59N 47°49' W 004°23'2 3.6
2018-Feb-19 18:29N 47°49' W 004°25'4 9.0
2018-Feb-19 18:00N 47°52' W 004°30'4 8.9
2018-Feb-19 17:30N 47°55' W 004°35'4 8.7
2018-Feb-19 17:00N 47°58' W 004°40'4 8.2
2018-Feb-19 16:30N 48°01' W 004°45'3 6.8
2018-Feb-19 16:00N 48°03' W 004°48'4 8.0
2018-Feb-19 15:30N 48°06' W 004°52'4 7.7
2018-Feb-19 15:00N 48°10' W 004°55'3 5.4
2018-Feb-19 14:30N 48°12' W 004°58'0 0.6
2018-Feb-19 14:00N 48°11' W 004°57'0 0.1
2018-Feb-19 13:30N 48°11' W 004°57'1 2.0
2018-Feb-19 13:00N 48°11' W 004°57'4 8.6
2018-Feb-19 12:30N 48°07' W 004°52'4 8.8
2018-Feb-19 12:01N 48°04' W 004°49'5 9.9
2018-Feb-19 11:30N 48°00' W 004°43'5 9.2
2018-Feb-19 11:00N 47°57' W 004°38'4 8.6
2018-Feb-19 10:30N 47°54' W 004°33'4 8.4
2018-Feb-19 09:59N 47°51' W 004°28'4 8.2
2018-Feb-19 09:30N 47°49' W 004°24'1 1.6
2018-Feb-19 08:56N 47°49' W 004°23'0 0.0
2018-Feb-19 07:31N 47°49' W 004°23'0 0.0
2018-Feb-19 07:15N 47°49' W 004°23'0 0.0
2018-Feb-19 07:00N 47°49' W 004°23'0 0.0
2018-Feb-19 06:28N 47°49' W 004°23'0 0.0
2018-Feb-19 06:00N 47°49' W 004°23'0 0.0
2018-Feb-19 05:30N 47°49' W 004°23'0 0.0
2018-Feb-19 04:59N 47°49' W 004°23'2 4.0
2018-Feb-19 04:30N 47°50' W 004°26'4 8.5
2018-Feb-19 04:00N 47°52' W 004°30'4 8.2
2018-Feb-19 03:30N 47°55' W 004°35'4 8.0
2018-Feb-19 03:00N 47°58' W 004°39'4 7.3
2018-Feb-19 02:30N 48°00' W 004°43'3 5.8
2018-Feb-19 02:00N 48°02' W 004°47'3 5.3
2018-Feb-19 01:30N 48°04' W 004°50'4 7.4
2018-Feb-19 01:00N 48°07' W 004°53'4 7.7
2018-Feb-19 00:30N 48°10' W 004°56'2 3.4
2018-Feb-19 00:00N 48°11' W 004°57'0 0.0
2018-Feb-18 23:30N 48°11' W 004°57'0 0.0
2018-Feb-18 23:00N 48°11' W 004°57'0 0.0
2018-Feb-18 22:30N 48°11' W 004°57'0 0.1
2018-Feb-18 22:00N 48°11' W 004°58'2 3.3
2018-Feb-18 21:30N 48°13' W 004°59'1 2.6
2018-Feb-18 21:00N 48°13' W 005°01'1 2.6
2018-Feb-18 20:30N 48°12' W 005°03'2 3.2
2018-Feb-18 20:00N 48°13' W 005°05'1 2.1
2018-Feb-18 19:30N 48°14' W 005°05'1 2.3
2018-Feb-18 19:00N 48°15' W 005°04'2 3.0
2018-Feb-18 18:29N 48°16' W 005°05'1 2.2
2018-Feb-18 18:00N 48°17' W 005°06'1 2.1
2018-Feb-18 17:30N 48°17' W 005°07'1 1.8
2018-Feb-18 16:59N 48°16' W 005°06'1 2.1
2018-Feb-18 16:29N 48°17' W 005°05'1 1.9
2018-Feb-18 15:58N 48°18' W 005°05'1 2.2
2018-Feb-18 15:30N 48°18' W 005°07'1 2.6
2018-Feb-18 14:59N 48°18' W 005°09'0 1.0
2018-Feb-18 14:30N 48°19' W 005°09'1 2.8
2018-Feb-18 14:00N 48°18' W 005°07'1 2.9
2018-Feb-18 13:30N 48°18' W 005°05'2 3.2
2018-Feb-18 13:00N 48°17' W 005°04'1 2.7
2018-Feb-18 12:30N 48°16' W 005°03'1 2.5
2018-Feb-18 12:00N 48°15' W 005°05'2 3.2
2018-Feb-18 11:29N 48°16' W 005°05'2 3.1
2018-Feb-18 10:59N 48°18' W 005°05'2 3.2
2018-Feb-18 10:30N 48°18' W 005°07'1 2.8
2018-Feb-18 09:58N 48°18' W 005°09'1 1.9
2018-Feb-18 09:28N 48°19' W 005°08'1 2.2
2018-Feb-18 09:00N 48°18' W 005°06'1 2.1
2018-Feb-18 08:30N 48°18' W 005°05'1 2.1
2018-Feb-18 08:00N 48°17' W 005°04'1 2.0
2018-Feb-18 07:30N 48°17' W 005°03'1 2.3
2018-Feb-18 07:00N 48°16' W 005°02'1 2.8
2018-Feb-18 06:30N 48°15' W 005°04'1 2.5
2018-Feb-18 06:00N 48°15' W 005°05'1 2.5
2018-Feb-18 05:30N 48°16' W 005°05'1 2.0
2018-Feb-18 05:00N 48°17' W 005°05'1 2.8
2018-Feb-18 04:30N 48°17' W 005°03'1 2.7
2018-Feb-18 04:00N 48°15' W 005°02'2 3.4
2018-Feb-18 03:30N 48°14' W 005°05'1 1.8
2018-Feb-18 02:57N 48°15' W 005°05'1 1.4
2018-Feb-18 02:30N 48°16' W 005°05'1 1.9
2018-Feb-18 02:00N 48°17' W 005°05'1 2.1
2018-Feb-18 01:30N 48°17' W 005°03'1 3.0
2018-Feb-18 01:00N 48°15' W 005°02'2 3.1
2018-Feb-18 00:30N 48°15' W 005°04'1 2.0
2018-Feb-17 23:59N 48°15' W 005°05'1 2.9
2018-Feb-17 23:30N 48°17' W 005°05'1 2.6
2018-Feb-17 23:00N 48°17' W 005°03'1 2.2
2018-Feb-17 22:30N 48°16' W 005°03'1 2.4
2018-Feb-17 22:00N 48°15' W 005°04'1 2.0
2018-Feb-17 21:31N 48°15' W 005°05'2 3.6
2018-Feb-17 21:00N 48°16' W 005°05'2 3.4
2018-Feb-17 20:28N 48°18' W 005°06'1 2.1
2018-Feb-17 20:00N 48°18' W 005°04'1 2.3
2018-Feb-17 19:30N 48°17' W 005°03'1 2.5
2018-Feb-17 19:00N 48°16' W 005°03'1 2.6
2018-Feb-17 18:30N 48°16' W 005°05'1 2.8
2018-Feb-17 18:00N 48°17' W 005°05'1 2.5
2018-Feb-17 17:29N 48°18' W 005°06'1 3.1
2018-Feb-17 17:00N 48°18' W 005°08'1 2.0
2018-Feb-17 16:29N 48°18' W 005°09'1 2.9
2018-Feb-17 16:01N 48°17' W 005°07'1 2.0
2018-Feb-17 15:30N 48°18' W 005°06'1 2.4
2018-Feb-17 14:59N 48°18' W 005°07'1 2.9
2018-Feb-17 14:29N 48°18' W 005°09'2 3.1
2018-Feb-17 13:59N 48°17' W 005°08'2 3.1
2018-Feb-17 13:30N 48°16' W 005°06'1 2.5
2018-Feb-17 13:00N 48°18' W 005°05'1 2.3
2018-Feb-17 12:30N 48°17' W 005°03'2 3.2
2018-Feb-17 12:00N 48°16' W 005°03'1 2.8
2018-Feb-17 11:30N 48°15' W 005°04'1 2.7
2018-Feb-17 11:00N 48°16' W 005°05'2 3.3
2018-Feb-17 10:29N 48°17' W 005°05'1 2.6
2018-Feb-17 10:00N 48°18' W 005°05'1 2.0
2018-Feb-17 09:30N 48°18' W 005°04'1 1.9
2018-Feb-17 09:00N 48°17' W 005°03'1 1.8
2018-Feb-17 08:30N 48°16' W 005°03'1 2.0
2018-Feb-17 08:00N 48°15' W 005°03'1 1.6
2018-Feb-17 07:31N 48°15' W 005°03'1 2.7
2018-Feb-17 07:00N 48°14' W 005°05'2 3.4
2018-Feb-17 06:30N 48°16' W 005°05'1 2.4
2018-Feb-17 06:00N 48°17' W 005°04'1 2.7
2018-Feb-17 05:31N 48°16' W 005°02'1 2.6
2018-Feb-17 05:00N 48°15' W 005°03'2 3.1
2018-Feb-17 04:30N 48°15' W 005°05'1 2.2
2018-Feb-17 04:00N 48°16' W 005°05'1 2.1
2018-Feb-17 03:30N 48°17' W 005°05'1 2.1
2018-Feb-17 03:00N 48°18' W 005°04'1 2.7
2018-Feb-17 02:30N 48°17' W 005°03'2 4.3
2018-Feb-17 02:00N 48°15' W 005°04'1 1.9
2018-Feb-17 01:30N 48°15' W 005°05'1 2.2
2018-Feb-17 01:00N 48°16' W 005°05'1 2.1
2018-Feb-17 00:31N 48°17' W 005°05'1 3.0
2018-Feb-17 00:00N 48°16' W 005°03'1 2.7
2018-Feb-16 23:30N 48°15' W 005°03'1 2.9
2018-Feb-16 23:00N 48°14' W 005°04'1 2.5
2018-Feb-16 22:27N 48°16' W 005°05'2 3.4
2018-Feb-16 21:58N 48°17' W 005°05'1 2.5
2018-Feb-16 21:31N 48°17' W 005°03'1 2.2
2018-Feb-16 21:00N 48°16' W 005°03'0 1.0
2018-Feb-16 20:30N 48°16' W 005°03'1 2.2
2018-Feb-16 20:00N 48°15' W 005°03'1 2.5
2018-Feb-16 19:30N 48°15' W 005°05'2 3.5
2018-Feb-16 19:00N 48°17' W 005°05'1 2.9
2018-Feb-16 18:31N 48°18' W 005°06'1 2.0
2018-Feb-16 18:00N 48°18' W 005°04'1 2.8
2018-Feb-16 17:30N 48°17' W 005°03'2 3.1
2018-Feb-16 17:01N 48°15' W 005°02'2 3.1
2018-Feb-16 16:30N 48°15' W 005°04'0 1.0
2018-Feb-16 16:01N 48°15' W 005°05'1 2.8
2018-Feb-16 15:30N 48°13' W 005°05'2 3.7
2018-Feb-16 15:00N 48°12' W 005°03'2 3.5
2018-Feb-16 14:30N 48°10' W 005°02'2 4.2
2018-Feb-16 14:00N 48°09' W 005°05'2 4.4
2018-Feb-16 13:30N 48°07' W 005°07'1 2.1
2018-Feb-16 13:01N 48°08' W 005°09'1 2.5
2018-Feb-16 12:30N 48°08' W 005°07'1 3.0
2018-Feb-16 12:00N 48°08' W 005°05'1 2.7
2018-Feb-16 11:30N 48°09' W 005°03'3 6.7
2018-Feb-16 11:00N 48°07' W 004°58'4 8.5
2018-Feb-16 10:30N 48°05' W 004°53'4 8.7
2018-Feb-16 10:00N 48°02' W 004°48'4 8.7
2018-Feb-16 09:30N 47°59' W 004°43'4 8.5
2018-Feb-16 09:00N 47°56' W 004°38'4 8.3
2018-Feb-16 08:30N 47°54' W 004°34'4 8.2
2018-Feb-16 08:00N 47°51' W 004°29'4 8.1
2018-Feb-16 07:30N 47°49' W 004°24'1 1.6
2018-Feb-16 06:56N 47°49' W 004°23'0 0.0
2018-Feb-16 06:26N 47°49' W 004°23'0 0.0
2018-Feb-16 05:59N 47°49' W 004°23'0 0.0
2018-Feb-15 10:06N 47°49' W 004°23'0 0.1
2018-Feb-15 09:46N 47°49' W 004°23'0 0.0
2018-Feb-15 08:44N 47°49' W 004°23'0 0.0
2018-Feb-15 08:17N 47°49' W 004°23'0 0.0
2018-Feb-15 08:00N 47°49' W 004°23'0 0.0
2018-Feb-15 07:26N 47°49' W 004°23'0 0.0
2018-Feb-15 06:47N 47°49' W 004°23'0 0.0
2018-Feb-15 06:29N 47°49' W 004°23'0 0.0
2018-Feb-15 05:59N 47°49' W 004°23'0 0.0
2018-Feb-14 10:18N 47°49' W 004°23'0 0.0
2018-Feb-14 09:59N 47°49' W 004°23'0 0.0
2018-Feb-14 09:29N 47°49' W 004°23'0 0.0
2018-Feb-14 08:10N 47°49' W 004°23'0 0.0
2018-Feb-14 07:45N 47°49' W 004°23'0 0.0
2018-Feb-12 16:20N 47°49' W 004°23'0 0.0
2018-Feb-12 15:52N 47°49' W 004°23'2 3.4
2018-Feb-12 15:12N 47°47' W 004°23'2 8.1
2018-Feb-12 14:57N 47°46' W 004°20'2 2.0
2018-Feb-12 14:03N 47°47' W 004°18'1 6.0
2018-Feb-12 13:55N 47°46' W 004°19'3 6.4
2018-Feb-12 13:28N 47°46' W 004°23'4 7.3
2018-Feb-12 12:58N 47°49' W 004°27'4 7.9
2018-Feb-12 12:29N 47°51' W 004°32'4 7.8
2018-Feb-12 11:59N 47°54' W 004°36'4 7.6
2018-Feb-12 11:30N 47°56' W 004°40'4 7.1
2018-Feb-12 11:00N 47°59' W 004°43'3 6.2
2018-Feb-12 10:30N 48°02' W 004°46'2 3.8
2018-Feb-12 10:00N 48°03' W 004°46'3 5.3
2018-Feb-12 09:30N 48°05' W 004°43'  

Dump ship's entire track history